Time;durP1;ratioP1;P1;durP2;ratioP2;P2;SDS_P1;SDS_P2;PMS_P1;PMS_P2;Temp;Humidity;BMP_temperature;BMP_pressure;BME280_temperature;BME280_humidity;BME280_pressure;Samples;Min_cycle;Max_cycle;Signal;HPM_P1;HPM_P2
2021/01/15 00:01:22;;;;;;;27.22;12.07;;;;;;;-4.49;74.22;99395.13;1736178;79;21127;-50
2021/01/15 00:03:50;;;;;;;23.20;11.57;;;;;;;-4.52;74.19;99391.83;1738793;80;21174;-50
2021/01/15 00:06:25;;;;;;;23.07;11.75;;;;;;;-4.55;74.01;99393.23;1781857;80;21352;-50
2021/01/15 00:08:54;;;;;;;20.48;10.53;;;;;;;-4.57;74.05;99395.03;1785732;78;21842;-50
2021/01/15 00:14:06;;;;;;;24.10;11.12;;;;;;;-4.53;74.13;99399.19;1837833;76;28147;-49
2021/01/15 00:16:34;;;;;;;24.90;12.15;;;;;;;-4.55;74.02;99402.28;1807455;78;21239;-49
2021/01/15 00:19:02;;;;;;;26.48;12.78;;;;;;;-4.59;73.84;99401.53;1796175;78;21451;-49
2021/01/15 00:21:34;;;;;;;24.40;12.58;;;;;;;-4.55;74.05;99403.10;1771957;80;21636;-48
2021/01/15 00:24:04;;;;;;;27.40;12.90;;;;;;;-4.49;74.13;99407.22;1744759;81;21008;-48
2021/01/15 00:26:32;;;;;;;26.95;12.88;;;;;;;-4.47;73.84;99403.67;1747450;81;20967;-49
2021/01/15 00:29:00;;;;;;;26.87;12.90;;;;;;;-4.48;73.67;99401.98;1752447;80;21007;-49
2021/01/15 00:31:34;;;;;;;25.10;11.90;;;;;;;-4.48;73.69;99402.45;1755882;80;21351;-49
2021/01/15 00:34:03;;;;;;;27.75;12.50;;;;;;;-4.50;73.61;99402.48;1734399;81;21947;-49
2021/01/15 00:36:31;;;;;;;23.98;12.15;;;;;;;-4.54;73.55;99407.37;1739548;81;21019;-49
2021/01/15 00:38:59;;;;;;;28.50;12.28;;;;;;;-4.58;73.54;99408.84;1741571;81;21693;-49
2021/01/15 00:41:28;;;;;;;25.32;12.82;;;;;;;-4.60;73.47;99414.91;1736662;81;21146;-49
2021/01/15 00:43:55;;;;;;;25.80;12.80;;;;;;;-4.63;73.56;99415.02;1747946;81;22143;-49
2021/01/15 00:46:32;;;;;;;24.10;11.60;;;;;;;-4.65;73.66;99412.93;1742847;81;21043;-50
2021/01/15 00:49:05;;;;;;;26.87;12.80;;;;;;;-4.68;73.70;99411.75;1755459;81;21034;-49
2021/01/15 00:51:33;;;;;;;28.17;12.95;;;;;;;-4.69;73.65;99413.94;1754999;81;20999;-50
2021/01/15 00:54:02;;;;;;;26.55;12.05;;;;;;;-4.68;73.72;99421.22;1755290;81;22115;-49
2021/01/15 00:56:31;;;;;;;29.32;12.65;;;;;;;-4.67;73.86;99420.32;1755050;81;21186;-49
2021/01/15 00:58:59;;;;;;;24.60;11.33;;;;;;;-4.66;74.00;99424.16;1755327;81;21669;-49
2021/01/15 01:01:29;;;;;;;25.52;12.23;;;;;;;-4.65;73.64;99425.84;1754963;80;21177;-50
2021/01/15 01:03:57;;;;;;;29.18;12.47;;;;;;;-4.68;73.51;99421.22;1755200;81;21545;-50
2021/01/15 01:06:25;;;;;;;27.85;13.30;;;;;;;-4.69;73.52;99425.98;1732425;81;21144;-50
2021/01/15 01:08:52;;;;;;;33.15;14.05;;;;;;;-4.71;73.44;99421.33;1717012;82;21215;-50
2021/01/15 01:11:23;;;;;;;23.32;12.65;;;;;;;-4.69;73.60;99425.55;1730215;81;22135;-49
2021/01/15 01:13:52;;;;;;;27.48;12.15;;;;;;;-4.70;73.14;99426.45;1715669;81;21983;-52
2021/01/15 01:16:22;;;;;;;24.92;11.68;;;;;;;-4.76;73.14;99426.20;1715337;81;21955;-49
2021/01/15 01:18:49;;;;;;;23.50;11.20;;;;;;;-4.83;73.25;99429.06;1721566;80;20952;-49
2021/01/15 01:21:17;;;;;;;23.57;10.53;;;;;;;-4.89;73.56;99433.53;1731416;81;21360;-49
2021/01/15 01:23:45;;;;;;;24.98;11.80;;;;;;;-4.90;73.62;99430.56;1744777;81;22060;-49
2021/01/15 01:26:13;;;;;;;27.75;12.40;;;;;;;-4.93;73.67;99437.58;1761198;81;21005;-50
2021/01/15 01:28:42;;;;;;;28.15;14.13;;;;;;;-4.99;73.83;99438.61;1744446;81;20952;-49
2021/01/15 01:31:10;;;;;;;53.63;26.15;;;;;;;-5.01;73.96;99430.54;1742231;81;22312;-49
2021/01/15 01:33:39;;;;;;;28.90;12.78;;;;;;;-5.01;74.10;99433.95;1739132;80;21477;-49
2021/01/15 01:36:07;;;;;;;24.87;11.45;;;;;;;-4.97;74.31;99438.11;1738907;81;22167;-49
2021/01/15 01:38:35;;;;;;;23.60;11.28;;;;;;;-4.91;74.24;99433.20;1737794;81;22112;-49
2021/01/15 01:41:02;;;;;;;22.02;11.38;;;;;;;-4.91;74.15;99439.66;1742104;81;21575;-49
2021/01/15 01:43:30;;;;;;;25.50;11.60;;;;;;;-4.92;74.22;99441.38;1747758;81;21109;-49
2021/01/15 01:46:02;;;;;;;18.55;9.13;;;;;;;-4.94;73.92;99443.17;1733317;81;22006;-49
2021/01/15 01:48:30;;;;;;;24.35;11.97;;;;;;;-4.99;73.73;99440.36;1733727;80;21049;-49
2021/01/15 01:50:58;;;;;;;24.35;11.73;;;;;;;-5.04;73.85;99455.98;1755856;80;21134;-49
2021/01/15 01:53:30;;;;;;;22.32;10.55;;;;;;;-5.05;74.00;99457.73;1740282;80;21103;-49
2021/01/15 01:56:02;;;;;;;21.95;10.15;;;;;;;-5.06;74.02;99453.47;1747398;81;21097;-49
2021/01/15 01:58:31;;;;;;;25.55;11.63;;;;;;;-5.07;74.10;99455.66;1729500;81;21190;-49
2021/01/15 02:01:03;;;;;;;19.05;10.48;;;;;;;-5.10;74.16;99457.05;1713551;81;22121;-49
2021/01/15 02:03:32;;;;;;;22.13;10.80;;;;;;;-5.07;74.28;99456.95;1724273;81;21194;-49
2021/01/15 02:06:01;;;;;;;22.25;10.90;;;;;;;-5.07;74.36;99456.95;1745967;80;21141;-49
2021/01/15 02:08:29;;;;;;;20.85;10.58;;;;;;;-5.07;74.45;99462.11;1753575;80;21790;-49
2021/01/15 02:11:39;;;;;;;22.85;10.48;;;;;;;-5.09;74.20;99454.86;1764263;80;21443;-49
2021/01/15 02:15:02;;;;;;;23.65;11.08;;;;;;;-5.12;74.23;99455.39;1749994;80;21909;-48
2021/01/15 02:17:40;;;;;;;25.10;12.00;;;;;;;-5.19;74.29;99459.46;1706732;81;21609;-49
2021/01/15 02:20:23;;;;;;;20.88;9.55;;;;;;;-5.22;74.46;99449.70;1747605;80;21721;-49
2021/01/15 02:23:21;;;;;;;22.65;10.80;;;;;;;-5.28;74.20;99450.73;1706268;81;21166;-49
2021/01/15 02:26:24;;;;;;;20.65;9.80;;;;;;;-5.40;74.22;99461.47;1743480;81;21207;-49
2021/01/15 02:29:12;;;;;;;23.60;10.65;;;;;;;-5.47;74.51;99462.08;1774320;80;21807;-49
2021/01/15 02:31:48;;;;;;;23.95;10.78;;;;;;;-5.44;74.44;99464.56;1760698;81;22150;-49
2021/01/15 02:34:30;;;;;;;20.10;10.23;;;;;;;-5.45;74.20;99459.47;1743322;81;22157;-49
2021/01/15 02:37:13;;;;;;;22.82;10.38;;;;;;;-5.49;73.88;99453.55;1733847;80;21159;-49
2021/01/15 02:39:59;;;;;;;19.85;9.58;;;;;;;-5.56;73.78;99460.65;1732451;81;21357;-49
2021/01/15 02:42:27;;;;;;;19.30;9.18;;;;;;;-5.62;74.00;99460.84;1737319;81;21219;-49
2021/01/15 02:44:55;;;;;;;19.55;9.00;;;;;;;-5.69;74.01;99468.36;1714302;81;21023;-49
2021/01/15 02:47:26;;;;;;;18.52;8.08;;;;;;;-5.72;74.32;99473.14;1707423;81;21145;-49
2021/01/15 02:49:55;;;;;;;18.92;9.43;;;;;;;-5.74;74.37;99475.38;1701725;81;21557;-49
2021/01/15 02:52:23;;;;;;;22.10;10.78;;;;;;;-5.79;74.43;99469.06;1718462;81;21383;-49
2021/01/15 02:54:51;;;;;;;23.32;10.60;;;;;;;-5.82;74.61;99471.73;1740654;80;21058;-49
2021/01/15 02:57:19;;;;;;;20.17;9.48;;;;;;;-5.79;74.54;99482.80;1744655;80;21172;-49
2021/01/15 02:59:46;;;;;;;25.57;13.20;;;;;;;-5.78;74.55;99481.92;1736733;81;21639;-49
2021/01/15 03:02:18;;;;;;;20.82;11.05;;;;;;;-5.76;74.32;99482.32;1712501;82;21145;-49
2021/01/15 03:05:10;;;;;;;18.98;9.55;;;;;;;-5.78;74.12;99488.79;1727971;81;21275;-49
2021/01/15 03:07:37;;;;;;;19.42;10.23;;;;;;;-5.85;74.04;99482.98;1707463;82;23899;-49
2021/01/15 03:10:06;;;;;;;19.57;8.78;;;;;;;-5.92;74.07;99481.48;1731511;81;21008;-49
2021/01/15 03:12:35;;;;;;;21.55;10.13;;;;;;;-5.98;74.10;99485.09;1720804;82;22148;-49
2021/01/15 03:15:03;;;;;;;23.70;9.58;;;;;;;-6.04;74.12;99481.43;1716162;81;21173;-49
2021/01/15 03:17:33;;;;;;;18.48;9.25;;;;;;;-6.05;74.00;99490.05;1698208;82;21411;-49
2021/01/15 03:20:02;;;;;;;20.95;9.10;;;;;;;-6.09;74.07;99482.84;1734327;81;21047;-50
2021/01/15 03:22:32;;;;;;;21.48;9.48;;;;;;;-6.17;73.92;99486.06;1717764;81;21015;-49
2021/01/15 03:25:00;;;;;;;18.50;8.28;;;;;;;-6.25;74.01;99493.16;1734290;81;21133;-49
2021/01/15 03:27:48;;;;;;;19.17;8.20;;;;;;;-6.30;74.03;99495.88;1742702;80;20987;-48
2021/01/15 03:30:27;;;;;;;17.48;8.33;;;;;;;-6.35;74.11;99503.31;1760494;81;21366;-48
2021/01/15 03:33:03;;;;;;;17.77;8.58;;;;;;;-6.42;74.16;99502.22;1707085;81;22075;-48
2021/01/15 03:35:32;;;;;;;18.02;8.28;;;;;;;-6.50;74.27;99496.43;1773132;80;22134;-50
2021/01/15 03:38:08;;;;;;;20.12;9.20;;;;;;;-6.55;74.39;99501.69;1691942;82;21161;-50
2021/01/15 03:40:40;;;;;;;19.67;8.80;;;;;;;-6.60;74.48;99503.53;1724734;81;21142;-49
2021/01/15 03:43:20;;;;;;;34.27;16.48;;;;;;;-6.62;74.83;99509.16;1711847;81;21546;-49
2021/01/15 03:45:49;;;;;;;18.20;8.65;;;;;;;-6.61;75.08;99513.88;1712650;82;21054;-49
2021/01/15 03:48:17;;;;;;;22.10;10.15;;;;;;;-6.64;74.84;99517.82;1698487;81;21035;-49
2021/01/15 03:50:45;;;;;;;17.57;7.67;;;;;;;-6.66;74.80;99511.41;1710328;81;21906;-49
2021/01/15 03:53:15;;;;;;;20.92;10.43;;;;;;;-6.66;74.65;99510.12;1720656;81;21968;-49
2021/01/15 03:55:43;;;;;;;21.40;10.48;;;;;;;-6.70;74.46;99514.52;1722366;81;23198;-49
2021/01/15 03:58:10;;;;;;;18.62;8.15;;;;;;;-6.73;74.54;99523.61;1732624;81;21642;-49
2021/01/15 04:00:38;;;;;;;16.30;7.42;;;;;;;-6.73;74.62;99526.61;1732421;81;21928;-49
2021/01/15 04:03:06;;;;;;;58.58;24.85;;;;;;;-6.73;74.70;99518.45;1734685;81;21011;-49
2021/01/15 04:05:35;;;;;;;20.08;10.13;;;;;;;-6.73;74.66;99521.45;1755881;80;21147;-49
2021/01/15 04:08:03;;;;;;;94.22;41.85;;;;;;;-6.74;74.61;99515.48;1747579;81;22970;-49
2021/01/15 04:10:31;;;;;;;67.65;30.68;;;;;;;-6.73;74.65;99518.45;1719413;81;21169;-49
2021/01/15 04:12:58;;;;;;;57.08;26.00;;;;;;;-6.71;74.38;99519.69;1748528;80;21007;-49
2021/01/15 04:15:26;;;;;;;38.92;17.15;;;;;;;-6.71;74.32;99525.70;1740002;81;21616;-49
2021/01/15 04:17:54;;;;;;;25.82;11.97;;;;;;;-6.73;74.13;99526.18;1746183;81;20982;-49
2021/01/15 04:20:22;;;;;;;27.50;14.23;;;;;;;-6.76;74.00;99531.41;1736847;81;21801;-49
2021/01/15 04:22:49;;;;;;;26.73;11.38;;;;;;;-6.80;74.04;99527.22;1746260;81;21681;-49
2021/01/15 04:25:17;;;;;;;21.17;10.50;;;;;;;-6.83;74.02;99531.98;1736575;81;21014;-49
2021/01/15 04:27:45;;;;;;;18.57;8.10;;;;;;;-6.88;74.07;99529.95;1716977;81;21120;-49
2021/01/15 04:30:15;;;;;;;22.48;10.35;;;;;;;-6.94;74.24;99523.70;1701910;81;21132;-49
2021/01/15 04:32:45;;;;;;;20.50;10.10;;;;;;;-6.99;74.57;99535.37;1681011;83;21211;-49
2021/01/15 04:35:14;;;;;;;53.13;26.90;;;;;;;-7.01;74.69;99537.14;1700645;81;21147;-49
2021/01/15 04:37:42;;;;;;;60.60;26.93;;;;;;;-7.03;74.78;99540.19;1690457;82;21154;-49
2021/01/15 04:40:10;;;;;;;35.78;16.02;;;;;;;-7.02;74.98;99544.91;1721781;82;21148;-49
2021/01/15 04:42:43;;;;;;;22.35;10.05;;;;;;;-7.00;74.88;99546.55;1697640;82;21123;-49
2021/01/15 04:45:13;;;;;;;23.80;12.28;;;;;;;-7.02;74.75;99544.45;1696710;82;21400;-49
2021/01/15 04:47:43;;;;;;;27.77;13.20;;;;;;;-7.07;74.52;99556.58;1699620;82;21617;-49
2021/01/15 04:50:13;;;;;;;20.27;10.63;;;;;;;-7.11;74.57;99561.39;1683062;83;21138;-49
2021/01/15 04:52:53;;;;;;;25.25;13.05;;;;;;;-7.19;74.56;99559.42;1715071;81;21169;-49
2021/01/15 04:55:24;;;;;;;19.67;10.13;;;;;;;-7.22;74.58;99568.50;1694990;84;21722;-50
2021/01/15 04:57:55;;;;;;;20.40;9.88;;;;;;;-7.23;74.62;99570.66;1715789;81;22205;-49
2021/01/15 05:00:25;;;;;;;22.13;9.43;;;;;;;-7.28;74.66;99572.89;1696801;83;21189;-49
2021/01/15 05:02:53;;;;;;;23.05;9.98;;;;;;;-7.31;74.57;99569.56;1695283;83;21157;-49
2021/01/15 05:05:26;;;;;;;21.65;9.83;;;;;;;-7.39;74.28;99578.71;1688529;83;22068;-48
2021/01/15 05:08:14;;;;;;;22.20;9.48;;;;;;;-7.48;74.01;99570.77;1745376;80;21950;-49
2021/01/15 05:10:44;;;;;;;19.95;9.23;;;;;;;-7.50;74.40;99578.12;1718211;82;21213;-49
2021/01/15 05:13:13;;;;;;;22.05;9.33;;;;;;;-7.51;74.36;99581.12;1720235;82;21204;-49
2021/01/15 05:15:44;;;;;;;18.05;9.03;;;;;;;-7.50;74.49;99580.69;1685054;83;22090;-49
2021/01/15 05:18:13;;;;;;;19.75;7.75;;;;;;;-7.48;74.36;99589.22;1707277;81;21184;-49
2021/01/15 05:20:40;;;;;;;17.52;8.90;;;;;;;-7.49;74.17;99588.81;1692974;83;21134;-50
2021/01/15 05:23:09;;;;;;;30.55;10.53;;;;;;;-7.54;73.77;99594.03;1698523;83;21391;-50
2021/01/15 05:25:44;;;;;;;24.23;11.18;;;;;;;-7.60;73.76;99586.02;1713788;81;21555;-50
2021/01/15 05:28:14;;;;;;;21.35;9.50;;;;;;;-7.61;73.93;99588.19;1697496;83;21142;-48
2021/01/15 05:30:41;;;;;;;21.33;8.95;;;;;;;-7.65;73.86;99596.84;1701240;82;21165;-50
2021/01/15 05:33:15;;;;;;;24.75;10.55;;;;;;;-7.67;73.75;99600.30;1699657;83;22157;-50
2021/01/15 05:35:51;;;;;;;22.48;9.58;;;;;;;-7.69;73.81;99602.05;1706489;81;23031;-49
2021/01/15 05:38:21;;;;;;;25.27;10.08;;;;;;;-7.72;73.69;99606.38;1697744;83;21162;-49
2021/01/15 05:40:51;;;;;;;23.07;10.13;;;;;;;-7.71;73.86;99613.20;1701569;81;21144;-49
2021/01/15 05:43:30;;;;;;;17.10;8.08;;;;;;;-7.69;73.96;99614.47;1698783;83;21122;-49
2021/01/15 05:46:13;;;;;;;24.18;10.05;;;;;;;-7.67;73.89;99609.29;1700340;82;21165;-49
2021/01/15 05:48:47;;;;;;;30.40;9.83;;;;;;;-7.67;73.86;99610.16;1706662;83;21441;-49
2021/01/15 05:51:31;;;;;;;19.90;8.63;;;;;;;-7.66;73.91;99611.84;1702327;83;21183;-49
2021/01/15 05:54:00;;;;;;;23.22;9.90;;;;;;;-7.64;73.54;99618.22;1703124;83;21137;-49
2021/01/15 05:56:46;;;;;;;22.70;9.58;;;;;;;-7.68;73.48;99616.59;1707036;83;21166;-49
2021/01/15 05:59:17;;;;;;;22.90;9.20;;;;;;;-7.73;73.62;99621.84;1707087;82;22066;-49
2021/01/15 06:02:01;;;;;;;23.35;10.53;;;;;;;-7.73;73.54;99620.09;1700347;83;21618;-49
2021/01/15 06:04:35;;;;;;;24.47;10.05;;;;;;;-7.75;73.29;99626.16;1720470;82;21141;-49
2021/01/15 06:07:15;;;;;;;21.37;9.55;;;;;;;-7.76;73.29;99624.01;1701173;83;21169;-49
2021/01/15 06:09:44;;;;;;;24.25;10.48;;;;;;;-7.76;73.19;99630.89;1704626;83;22032;-49
2021/01/15 06:12:17;;;;;;;24.77;10.55;;;;;;;-7.75;73.26;99629.55;1701281;81;21157;-49
2021/01/15 06:14:57;;;;;;;26.87;11.38;;;;;;;-7.75;72.95;99630.02;1697199;83;22998;-49
2021/01/15 06:17:26;;;;;;;26.20;10.38;;;;;;;-7.75;73.09;99637.27;1695452;83;21642;-49
2021/01/15 06:19:59;;;;;;;22.65;10.58;;;;;;;-7.71;73.12;99634.21;1696238;81;21172;-49
2021/01/15 06:22:51;;;;;;;22.58;10.38;;;;;;;-7.71;72.68;99643.20;1692838;83;21879;-49
2021/01/15 06:25:33;;;;;;;24.70;11.08;;;;;;;-7.71;72.62;99649.17;1703318;81;21169;-49
2021/01/15 06:28:07;;;;;;;28.17;10.63;;;;;;;-7.76;72.04;99645.02;1743521;81;22540;-49
2021/01/15 06:30:37;;;;;;;18.65;9.68;;;;;;;-7.82;71.92;99660.09;1702063;81;21129;-49
2021/01/15 06:33:14;;;;;;;25.32;10.13;;;;;;;-7.85;71.84;99666.57;1714363;81;21113;-49
2021/01/15 06:35:44;;;;;;;22.60;9.88;;;;;;;-7.87;71.62;99670.47;1691419;83;21158;-49
2021/01/15 06:38:14;;;;;;;24.32;9.20;;;;;;;-7.88;71.82;99669.20;1687137;83;22156;-49
2021/01/15 06:40:49;;;;;;;22.30;10.63;;;;;;;-7.88;71.68;99675.20;1684660;83;22620;-49
2021/01/15 06:43:27;;;;;;;26.68;10.48;;;;;;;-7.86;71.57;99677.72;1693645;83;21357;-49
2021/01/15 06:45:57;;;;;;;22.02;9.38;;;;;;;-7.84;71.62;99673.86;1699026;83;21008;-49
2021/01/15 06:48:37;;;;;;;22.40;10.08;;;;;;;-7.85;71.46;99685.84;1692262;82;21145;-49
2021/01/15 06:51:06;;;;;;;25.40;10.15;;;;;;;-7.89;71.19;99690.20;1692162;83;21138;-50
2021/01/15 06:53:39;;;;;;;21.65;9.43;;;;;;;-7.96;71.07;99692.91;1712546;81;21265;-50
2021/01/15 06:56:08;;;;;;;22.37;9.65;;;;;;;-8.03;71.03;99693.02;1677877;83;22012;-50
2021/01/15 06:58:41;;;;;;;26.30;10.78;;;;;;;-8.07;70.98;99696.94;1691914;83;22058;-49
2021/01/15 07:01:19;;;;;;;23.32;11.10;;;;;;;-8.08;71.32;99694.81;1709465;81;21137;-49
2021/01/15 07:04:17;;;;;;;29.98;13.85;;;;;;;-8.01;71.38;99699.40;1689899;83;21126;-48
2021/01/15 07:07:12;;;;;;;29.12;14.55;;;;;;;-7.96;71.36;99703.19;1701123;81;21199;-49
2021/01/15 07:09:43;;;;;;;30.37;11.48;;;;;;;-7.92;71.28;99708.23;1684717;83;21196;-49
2021/01/15 07:12:17;;;;;;;25.82;11.45;;;;;;;-7.89;71.13;99712.45;1700466;81;20994;-50
2021/01/15 07:14:59;;;;;;;25.40;10.58;;;;;;;-7.90;70.55;99713.33;1680765;83;22122;-50
2021/01/15 07:17:36;;;;;;;26.97;10.05;;;;;;;-7.97;70.06;99720.30;1702479;81;21128;-50
2021/01/15 07:20:15;;;;;;;28.75;11.48;;;;;;;-7.98;70.11;99729.34;1684988;82;21732;-49
2021/01/15 07:22:52;;;;;;;23.25;9.75;;;;;;;-8.03;70.08;99722.55;1695844;81;21169;-49
2021/01/15 07:25:21;;;;;;;24.23;11.22;;;;;;;-8.01;69.90;99736.64;1683407;83;21893;-47
2021/01/15 07:27:49;;;;;;;26.95;13.18;;;;;;;-8.06;69.66;99735.87;1709128;81;22053;-50
2021/01/15 07:30:24;;;;;;;27.37;12.55;;;;;;;-8.11;69.88;99742.37;1688074;83;21131;-49
2021/01/15 07:32:53;;;;;;;27.22;10.95;;;;;;;-8.12;70.03;99740.68;1713323;81;22662;-49
2021/01/15 07:35:25;;;;;;;26.27;12.00;;;;;;;-8.13;70.00;99745.83;1675948;83;21779;-49
2021/01/15 07:38:16;;;;;;;28.73;10.60;;;;;;;-8.18;70.08;99751.05;1692046;83;21146;-48
2021/01/15 07:40:44;;;;;;;26.50;11.08;;;;;;;-8.21;70.11;99751.92;1707189;81;21108;-49
2021/01/15 07:46:11;;;;;;;33.90;11.15;;;;;;;-8.21;70.44;99756.23;1867155;76;28180;-49
2021/01/15 07:48:38;;;;;;;28.80;10.90;;;;;;;-8.24;70.74;99767.83;1813731;77;21660;-49
2021/01/15 07:51:11;;;;;;;30.92;11.93;;;;;;;-8.19;71.00;99769.89;1749233;77;21211;-50
2021/01/15 07:53:40;;;;;;;27.98;11.05;;;;;;;-8.12;70.63;99770.63;1823751;77;21065;-49
2021/01/15 07:56:10;;;;;;;20.20;9.50;;;;;;;-8.09;70.61;99770.58;1815718;77;21727;-49
2021/01/15 07:58:48;;;;;;;28.10;10.88;;;;;;;-8.07;70.44;99783.83;1825109;77;23301;-48
2021/01/15 08:01:17;;;;;;;31.33;11.38;;;;;;;-8.10;69.95;99776.59;1834217;77;21479;-48
2021/01/15 08:03:56;;;;;;;27.17;12.05;;;;;;;-8.15;69.70;99781.81;1827271;77;22371;-49
2021/01/15 08:06:26;;;;;;;29.50;13.65;;;;;;;-8.15;69.78;99789.52;1849512;75;21010;-48
2021/01/15 08:09:07;;;;;;;28.32;11.45;;;;;;;-8.16;69.87;99789.94;1848134;75;22130;-48
2021/01/15 08:11:37;;;;;;;27.20;12.93;;;;;;;-8.14;69.77;99795.06;1848013;75;20927;-48
2021/01/15 08:14:17;;;;;;;22.85;10.85;;;;;;;-8.15;69.68;99790.80;1850325;75;22053;-48
2021/01/15 08:16:46;;;;;;;35.68;12.47;;;;;;;-8.12;69.55;99787.33;1850699;75;21410;-48
2021/01/15 08:19:17;;;;;;;30.97;12.05;;;;;;;-8.11;69.47;99798.01;1852518;75;21961;-49
2021/01/15 08:21:46;;;;;;;26.60;11.40;;;;;;;-8.11;69.21;99800.16;1850028;75;25139;-48
2021/01/15 08:24:14;;;;;;;27.30;12.13;;;;;;;-8.11;69.17;99806.58;1848427;75;20990;-49
2021/01/15 08:26:50;;;;;;;33.08;13.83;;;;;;;-8.06;69.26;99814.19;1854879;75;21094;-49
2021/01/15 08:29:21;;;;;;;40.35;16.97;;;;;;;-7.96;69.27;99807.22;1849627;75;23084;-49
2021/01/15 08:31:49;;;;;;;39.25;15.98;;;;;;;-7.86;69.38;99804.88;1797619;79;21145;-49
2021/01/15 08:34:22;;;;;;;32.75;12.28;;;;;;;-7.71;69.25;99812.34;1790955;78;21126;-49
2021/01/15 08:36:58;;;;;;;30.17;12.15;;;;;;;-7.63;68.65;99812.66;1793913;79;20924;-49
2021/01/15 08:39:26;;;;;;;50.58;21.07;;;;;;;-7.63;68.29;99807.09;1780001;79;21006;-49
2021/01/15 08:41:59;;;;;;;45.00;18.30;;;;;;;-7.65;68.17;99807.98;1800179;79;21374;-49
2021/01/15 08:44:36;;;;;;;38.25;15.13;;;;;;;-7.65;68.06;99815.27;1783814;78;21213;-48
2021/01/15 08:47:07;;;;;;;39.25;15.00;;;;;;;-7.71;67.86;99814.08;1806533;79;20963;-50
2021/01/15 08:49:34;;;;;;;35.33;14.63;;;;;;;-7.75;67.69;99823.55;1801196;79;21141;-48
2021/01/15 08:52:03;;;;;;;32.45;14.83;;;;;;;-7.75;67.58;99820.14;1791039;78;21943;-49
2021/01/15 08:54:32;;;;;;;39.40;16.12;;;;;;;-7.76;67.71;99821.02;1796693;78;22714;-49
2021/01/15 08:57:02;;;;;;;32.20;13.98;;;;;;;-7.75;67.48;99818.86;1788407;78;21026;-51
2021/01/15 08:59:31;;;;;;;29.30;12.68;;;;;;;-7.76;67.47;99820.56;1791043;78;20978;-49
2021/01/15 09:02:05;;;;;;;27.73;12.28;;;;;;;-7.73;67.35;99823.09;1800831;77;21113;-49
2021/01/15 09:04:34;;;;;;;30.97;12.80;;;;;;;-7.70;67.22;99826.06;1778210;78;21134;-50
2021/01/15 09:07:07;;;;;;;32.90;14.03;;;;;;;-7.72;66.37;99823.95;1796114;78;22146;-49
2021/01/15 09:09:35;;;;;;;30.15;13.45;;;;;;;-7.76;66.79;99825.70;1779346;80;21004;-50
2021/01/15 09:12:05;;;;;;;29.52;13.62;;;;;;;-7.65;67.23;99828.12;1779000;78;21161;-49
2021/01/15 09:14:36;;;;;;;34.88;15.72;;;;;;;-7.50;67.20;99830.02;1807778;77;21594;-50
2021/01/15 09:17:07;;;;;;;30.10;14.13;;;;;;;-7.33;67.51;99821.55;1811475;78;22171;-50
2021/01/15 09:19:36;;;;;;;34.90;13.80;;;;;;;-7.17;67.06;99819.98;1811624;78;21895;-51
2021/01/15 09:22:08;;;;;;;32.60;14.13;;;;;;;-7.03;66.46;99816.72;1810432;78;20987;-50
2021/01/15 09:24:36;;;;;;;28.67;11.55;;;;;;;-6.94;66.12;99822.15;1811686;78;21121;-50
2021/01/15 09:27:05;;;;;;;36.40;15.25;;;;;;;-6.84;65.43;99814.62;1812178;77;21905;-50
2021/01/15 09:29:34;;;;;;;34.25;13.20;;;;;;;-6.76;65.45;99822.62;1799043;79;21141;-49
2021/01/15 09:32:02;;;;;;;31.02;14.45;;;;;;;-6.60;65.62;99814.17;1797812;79;22784;-49
2021/01/15 09:34:31;;;;;;;32.45;13.48;;;;;;;-6.47;64.89;99820.77;1797430;79;20963;-49
2021/01/15 09:36:59;;;;;;;30.10;12.53;;;;;;;-6.40;64.68;99830.48;1779446;78;21001;-49
2021/01/15 09:39:27;;;;;;;33.75;12.73;;;;;;;-6.43;63.69;99833.98;1818576;77;21138;-48
2021/01/15 09:41:58;;;;;;;26.60;11.65;;;;;;;-6.50;63.94;99832.84;1817967;77;20968;-48
2021/01/15 09:44:28;;;;;;;21.50;10.45;;;;;;;-6.50;63.57;99837.56;1809667;77;21558;-49
2021/01/15 09:46:59;;;;;;;28.45;12.37;;;;;;;-6.56;63.37;99828.22;1787740;79;21751;-49
2021/01/15 09:49:27;;;;;;;26.60;11.35;;;;;;;-6.57;63.48;99830.39;1791200;79;21619;-49
2021/01/15 09:51:55;;;;;;;23.00;10.23;;;;;;;-6.52;63.74;99827.73;1770560;79;20942;-48
2021/01/15 09:54:23;;;;;;;24.65;10.70;;;;;;;-6.46;63.22;99835.76;1756998;79;21118;-50
2021/01/15 09:56:51;;;;;;;20.45;9.93;;;;;;;-6.46;63.46;99834.05;1820123;76;21189;-50
2021/01/15 09:59:20;;;;;;;25.75;9.98;;;;;;;-6.39;63.30;99830.46;1816893;76;21102;-50
2021/01/15 10:01:48;;;;;;;23.45;10.30;;;;;;;-6.27;63.54;99839.64;1750608;80;22109;-49
2021/01/15 10:04:16;;;;;;;27.70;11.63;;;;;;;-6.09;63.51;99837.54;1737764;79;21139;-49
2021/01/15 10:06:45;;;;;;;25.65;10.75;;;;;;;-5.95;63.38;99839.33;1811166;77;21130;-49
2021/01/15 10:09:14;;;;;;;25.05;10.85;;;;;;;-5.79;63.15;99839.80;1750909;80;21454;-48
2021/01/15 10:11:47;;;;;;;26.25;11.15;;;;;;;-5.64;62.81;99836.45;1730418;81;21162;-49
2021/01/15 10:14:17;;;;;;;26.55;10.80;;;;;;;-5.56;61.52;99837.12;1739741;79;21004;-49
2021/01/15 10:19:28;;;;;;;20.40;9.20;;;;;;;-5.61;60.52;99834.23;1855335;75;29438;-48
2021/01/15 10:21:55;;;;;;;23.15;10.32;;;;;;;-5.65;59.99;99832.19;1820868;77;21463;-49
2021/01/15 10:24:23;;;;;;;23.95;10.23;;;;;;;-5.69;59.81;99835.27;1834029;77;21601;-49
2021/01/15 10:26:51;;;;;;;24.35;9.95;;;;;;;-5.74;59.84;99833.70;1839034;77;21098;-50
2021/01/15 10:29:19;;;;;;;22.90;9.23;;;;;;;-5.69;60.57;99838.30;1847270;77;21062;-49
2021/01/15 10:31:54;;;;;;;21.93;9.45;;;;;;;-5.58;59.62;99835.02;1753251;79;21178;-50
2021/01/15 10:34:25;;;;;;;27.15;11.12;;;;;;;-5.51;59.63;99831.83;1771861;80;21837;-49
2021/01/15 10:36:53;;;;;;;22.50;10.05;;;;;;;-5.35;60.10;99834.89;1796946;78;21198;-48
2021/01/15 10:39:21;;;;;;;21.65;9.05;;;;;;;-5.16;59.79;99828.80;1774041;78;22079;-48
2021/01/15 10:41:51;;;;;;;21.17;9.43;;;;;;;-5.12;58.43;99843.73;1789944;78;22538;-49
2021/01/15 10:44:21;;;;;;;23.25;8.98;;;;;;;-5.27;57.87;99841.95;1787569;78;22289;-48
2021/01/15 10:46:52;;;;;;;19.73;9.43;;;;;;;-5.37;57.34;99843.94;1799251;78;21498;-49
2021/01/15 10:49:22;;;;;;;26.48;10.93;;;;;;;-5.54;57.11;99841.80;1805779;78;21254;-49
2021/01/15 10:51:56;;;;;;;21.62;9.00;;;;;;;-5.70;57.59;99843.05;1808185;78;21921;-49
2021/01/15 10:54:21;;;;;;;18.77;8.40;;;;;;;-5.81;57.71;99842.86;1775407;80;21973;-48
2021/01/15 10:56:51;;;;;;;23.95;10.20;;;;;;;-5.86;57.76;99847.28;1780016;78;21003;-50
2021/01/15 10:59:20;;;;;;;20.77;10.03;;;;;;;-5.95;57.83;99852.22;1774462;80;21006;-53
2021/01/15 11:01:49;;;;;;;22.05;10.32;;;;;;;-6.04;57.84;99860.19;1773763;80;22191;-50
2021/01/15 11:04:18;;;;;;;22.55;8.93;;;;;;;-6.08;57.65;99864.54;1807466;78;21969;-49
2021/01/15 11:06:50;;;;;;;24.07;8.15;;;;;;;-6.16;57.45;99852.72;1739960;81;21169;-49
2021/01/15 11:09:19;;;;;;;19.57;8.50;;;;;;;-6.25;58.01;99849.47;1774176;80;21117;-50
2021/01/15 11:11:51;;;;;;;19.12;8.28;;;;;;;-6.35;58.34;99850.97;1773579;80;21035;-50
2021/01/15 11:14:19;;;;;;;17.62;7.95;;;;;;;-6.29;58.58;99846.55;1772766;80;21463;-49
2021/01/15 11:16:47;;;;;;;17.55;7.87;;;;;;;-6.16;58.71;99847.11;1742843;78;21106;-50
2021/01/15 11:19:14;;;;;;;26.87;8.60;;;;;;;-6.01;58.80;99847.23;1735358;80;21141;-50
2021/01/15 11:21:42;;;;;;;24.57;9.65;;;;;;;-5.91;58.68;99850.40;1751240;81;20981;-51
2021/01/15 11:24:11;;;;;;;18.82;7.60;;;;;;;-5.84;58.88;99840.36;1735950;80;21926;-51
2021/01/15 11:26:39;;;;;;;18.23;8.00;;;;;;;-5.66;58.98;99845.95;1762868;80;21931;-51
2021/01/15 11:29:08;;;;;;;16.62;7.72;;;;;;;-5.55;58.61;99843.11;1752553;81;20998;-50
2021/01/15 11:31:38;;;;;;;19.73;8.43;;;;;;;-5.54;57.32;99844.38;1742608;81;21027;-49
2021/01/15 11:34:06;;;;;;;18.48;8.45;;;;;;;-5.57;57.73;99843.16;1728619;80;21100;-50
2021/01/15 11:36:35;;;;;;;27.70;10.58;;;;;;;-5.50;58.25;99841.27;1753212;81;21121;-49
2021/01/15 11:39:06;;;;;;;36.05;11.78;;;;;;;-5.42;57.80;99843.66;1754116;81;21146;-48
2021/01/15 11:41:35;;;;;;;24.43;10.03;;;;;;;-5.39;57.87;99842.30;1753896;81;20983;-47
2021/01/15 11:44:07;;;;;;;22.35;10.03;;;;;;;-5.39;57.84;99835.39;1753030;81;21114;-49
2021/01/15 11:46:36;;;;;;;22.87;10.28;;;;;;;-5.33;58.00;99836.98;1725085;80;21139;-49
2021/01/15 11:49:04;;;;;;;27.13;9.10;;;;;;;-5.24;57.89;99840.59;1744689;80;22237;-50